sensor_id;sensor_type;location;lat;lon;timestamp;P1;durP1;ratioP1;P2;durP2;ratioP2
74658;SDS011;63186;51.204;6.536;2022-09-21T00:00:28;11.75;;;5.50;;
74658;SDS011;63186;51.204;6.536;2022-09-21T00:02:55;10.70;;;5.63;;
74658;SDS011;63186;51.204;6.536;2022-09-21T00:05:21;10.75;;;5.50;;
74658;SDS011;63186;51.204;6.536;2022-09-21T00:07:46;12.05;;;5.80;;
74658;SDS011;63186;51.204;6.536;2022-09-21T00:10:12;10.60;;;5.05;;
74658;SDS011;63186;51.204;6.536;2022-09-21T00:12:37;9.93;;;5.17;;
74658;SDS011;63186;51.204;6.536;2022-09-21T00:15:06;11.67;;;5.53;;
74658;SDS011;63186;51.204;6.536;2022-09-21T00:17:33;10.20;;;5.32;;
74658;SDS011;63186;51.204;6.536;2022-09-21T00:20:00;10.95;;;6.00;;
74658;SDS011;63186;51.204;6.536;2022-09-21T00:22:26;11.35;;;5.43;;
74658;SDS011;63186;51.204;6.536;2022-09-21T00:24:52;12.18;;;5.68;;
74658;SDS011;63186;51.204;6.536;2022-09-21T00:27:18;11.93;;;6.50;;
74658;SDS011;63186;51.204;6.536;2022-09-21T00:29:43;10.47;;;5.73;;
74658;SDS011;63186;51.204;6.536;2022-09-21T00:32:08;11.63;;;6.00;;
74658;SDS011;63186;51.204;6.536;2022-09-21T00:34:34;10.90;;;5.30;;
74658;SDS011;63186;51.204;6.536;2022-09-21T00:37:00;9.23;;;5.40;;
74658;SDS011;63186;51.204;6.536;2022-09-21T00:39:26;12.70;;;5.93;;
74658;SDS011;63186;51.204;6.536;2022-09-21T00:41:51;9.67;;;6.70;;
74658;SDS011;63186;51.204;6.536;2022-09-21T00:44:28;10.60;;;6.03;;
74658;SDS011;63186;51.204;6.536;2022-09-21T00:46:57;12.98;;;6.35;;
74658;SDS011;63186;51.204;6.536;2022-09-21T00:49:26;10.32;;;4.43;;
74658;SDS011;63186;51.204;6.536;2022-09-21T00:51:53;10.00;;;5.00;;
74658;SDS011;63186;51.204;6.536;2022-09-21T00:54:22;10.73;;;6.47;;
74658;SDS011;63186;51.204;6.536;2022-09-21T00:56:54;10.88;;;5.47;;
74658;SDS011;63186;51.204;6.536;2022-09-21T00:59:20;12.00;;;6.45;;
74658;SDS011;63186;51.204;6.536;2022-09-21T01:01:46;14.13;;;6.97;;
74658;SDS011;63186;51.204;6.536;2022-09-21T01:04:12;12.07;;;6.75;;
74658;SDS011;63186;51.204;6.536;2022-09-21T01:09:06;10.55;;;5.97;;
74658;SDS011;63186;51.204;6.536;2022-09-21T01:11:35;11.48;;;6.38;;
74658;SDS011;63186;51.204;6.536;2022-09-21T01:20:06;12.38;;;5.35;;
74658;SDS011;63186;51.204;6.536;2022-09-21T01:28:03;10.80;;;5.78;;
74658;SDS011;63186;51.204;6.536;2022-09-21T01:30:38;11.75;;;5.05;;
74658;SDS011;63186;51.204;6.536;2022-09-21T01:33:12;9.65;;;5.00;;
74658;SDS011;63186;51.204;6.536;2022-09-21T01:35:47;10.45;;;4.68;;
74658;SDS011;63186;51.204;6.536;2022-09-21T01:38:29;14.05;;;5.43;;
74658;SDS011;63186;51.204;6.536;2022-09-21T01:41:00;10.57;;;6.45;;
74658;SDS011;63186;51.204;6.536;2022-09-21T01:43:33;13.75;;;6.15;;
74658;SDS011;63186;51.204;6.536;2022-09-21T01:46:02;14.63;;;6.00;;
74658;SDS011;63186;51.204;6.536;2022-09-21T01:48:32;11.07;;;5.82;;
74658;SDS011;63186;51.204;6.536;2022-09-21T01:51:00;10.10;;;5.32;;
74658;SDS011;63186;51.204;6.536;2022-09-21T01:53:35;13.77;;;5.75;;
74658;SDS011;63186;51.204;6.536;2022-09-21T01:56:12;11.27;;;5.50;;
74658;SDS011;63186;51.204;6.536;2022-09-21T01:58:46;8.75;;;5.30;;
74658;SDS011;63186;51.204;6.536;2022-09-21T02:01:19;14.98;;;6.45;;
74658;SDS011;63186;51.204;6.536;2022-09-21T02:03:56;9.90;;;5.35;;
74658;SDS011;63186;51.204;6.536;2022-09-21T02:06:24;9.95;;;6.30;;
74658;SDS011;63186;51.204;6.536;2022-09-21T02:11:18;11.47;;;4.80;;
74658;SDS011;63186;51.204;6.536;2022-09-21T02:13:44;10.23;;;5.18;;
74658;SDS011;63186;51.204;6.536;2022-09-21T02:16:17;10.05;;;5.28;;
74658;SDS011;63186;51.204;6.536;2022-09-21T02:19:11;10.77;;;5.30;;
74658;SDS011;63186;51.204;6.536;2022-09-21T02:21:44;13.02;;;5.32;;
74658;SDS011;63186;51.204;6.536;2022-09-21T02:27:06;10.00;;;5.50;;
74658;SDS011;63186;51.204;6.536;2022-09-21T02:29:40;10.18;;;5.13;;
74658;SDS011;63186;51.204;6.536;2022-09-21T02:35:09;10.32;;;5.57;;
74658;SDS011;63186;51.204;6.536;2022-09-21T02:38:02;11.25;;;5.18;;
74658;SDS011;63186;51.204;6.536;2022-09-21T02:40:39;13.32;;;5.93;;
74658;SDS011;63186;51.204;6.536;2022-09-21T02:43:26;10.25;;;4.93;;
74658;SDS011;63186;51.204;6.536;2022-09-21T02:46:06;11.60;;;5.20;;
74658;SDS011;63186;51.204;6.536;2022-09-21T02:48:37;11.98;;;6.25;;
74658;SDS011;63186;51.204;6.536;2022-09-21T02:51:10;10.45;;;5.63;;
74658;SDS011;63186;51.204;6.536;2022-09-21T02:53:39;11.80;;;5.57;;
74658;SDS011;63186;51.204;6.536;2022-09-21T02:56:07;9.52;;;5.18;;
74658;SDS011;63186;51.204;6.536;2022-09-21T02:58:38;14.50;;;6.63;;
74658;SDS011;63186;51.204;6.536;2022-09-21T03:01:11;11.75;;;5.90;;
74658;SDS011;63186;51.204;6.536;2022-09-21T03:03:39;10.30;;;5.85;;
74658;SDS011;63186;51.204;6.536;2022-09-21T03:06:05;11.88;;;5.63;;
74658;SDS011;63186;51.204;6.536;2022-09-21T03:08:30;11.48;;;5.82;;
74658;SDS011;63186;51.204;6.536;2022-09-21T03:10:56;11.30;;;5.67;;
74658;SDS011;63186;51.204;6.536;2022-09-21T03:13:21;15.18;;;7.15;;
74658;SDS011;63186;51.204;6.536;2022-09-21T03:15:47;11.00;;;5.88;;
74658;SDS011;63186;51.204;6.536;2022-09-21T03:18:12;14.57;;;6.32;;
74658;SDS011;63186;51.204;6.536;2022-09-21T03:20:39;9.98;;;5.55;;
74658;SDS011;63186;51.204;6.536;2022-09-21T03:23:09;11.95;;;6.57;;
74658;SDS011;63186;51.204;6.536;2022-09-21T03:25:34;11.50;;;6.17;;
74658;SDS011;63186;51.204;6.536;2022-09-21T03:28:00;10.45;;;5.88;;
74658;SDS011;63186;51.204;6.536;2022-09-21T03:30:25;11.73;;;5.53;;
74658;SDS011;63186;51.204;6.536;2022-09-21T03:32:51;10.50;;;5.65;;
74658;SDS011;63186;51.204;6.536;2022-09-21T03:35:18;10.50;;;5.53;;
74658;SDS011;63186;51.204;6.536;2022-09-21T03:37:45;11.10;;;5.38;;
74658;SDS011;63186;51.204;6.536;2022-09-21T03:40:11;10.30;;;4.50;;
74658;SDS011;63186;51.204;6.536;2022-09-21T03:42:37;11.05;;;5.80;;
74658;SDS011;63186;51.204;6.536;2022-09-21T03:45:03;10.30;;;5.40;;
74658;SDS011;63186;51.204;6.536;2022-09-21T03:47:29;13.55;;;6.20;;
74658;SDS011;63186;51.204;6.536;2022-09-21T03:49:54;11.85;;;6.72;;
74658;SDS011;63186;51.204;6.536;2022-09-21T03:52:20;11.73;;;5.20;;
74658;SDS011;63186;51.204;6.536;2022-09-21T03:54:45;10.23;;;5.90;;
74658;SDS011;63186;51.204;6.536;2022-09-21T03:59:43;10.05;;;4.95;;
74658;SDS011;63186;51.204;6.536;2022-09-21T04:02:08;10.73;;;4.90;;
74658;SDS011;63186;51.204;6.536;2022-09-21T04:04:34;9.97;;;5.20;;
74658;SDS011;63186;51.204;6.536;2022-09-21T04:06:59;9.30;;;4.80;;
74658;SDS011;63186;51.204;6.536;2022-09-21T04:09:24;9.33;;;5.27;;
74658;SDS011;63186;51.204;6.536;2022-09-21T04:11:50;13.80;;;5.90;;
74658;SDS011;63186;51.204;6.536;2022-09-21T04:14:17;8.20;;;4.07;;
74658;SDS011;63186;51.204;6.536;2022-09-21T04:16:43;10.18;;;5.00;;
74658;SDS011;63186;51.204;6.536;2022-09-21T04:19:08;9.98;;;4.50;;
74658;SDS011;63186;51.204;6.536;2022-09-21T04:21:34;9.73;;;3.85;;
74658;SDS011;63186;51.204;6.536;2022-09-21T04:23:59;9.63;;;5.00;;
74658;SDS011;63186;51.204;6.536;2022-09-21T04:26:27;10.48;;;6.15;;
74658;SDS011;63186;51.204;6.536;2022-09-21T04:28:55;12.05;;;5.95;;
74658;SDS011;63186;51.204;6.536;2022-09-21T04:31:21;11.98;;;5.93;;
74658;SDS011;63186;51.204;6.536;2022-09-21T04:33:48;9.10;;;5.35;;
74658;SDS011;63186;51.204;6.536;2022-09-21T04:36:15;9.45;;;5.07;;
74658;SDS011;63186;51.204;6.536;2022-09-21T04:38:41;11.18;;;4.55;;
74658;SDS011;63186;51.204;6.536;2022-09-21T04:41:06;10.73;;;5.53;;
74658;SDS011;63186;51.204;6.536;2022-09-21T04:43:32;10.57;;;4.60;;
74658;SDS011;63186;51.204;6.536;2022-09-21T04:45:57;9.68;;;5.07;;
74658;SDS011;63186;51.204;6.536;2022-09-21T04:48:23;9.15;;;4.53;;
74658;SDS011;63186;51.204;6.536;2022-09-21T04:50:48;9.82;;;5.18;;
74658;SDS011;63186;51.204;6.536;2022-09-21T04:53:14;11.13;;;5.25;;
74658;SDS011;63186;51.204;6.536;2022-09-21T04:55:40;10.75;;;5.38;;
74658;SDS011;63186;51.204;6.536;2022-09-21T04:58:05;10.27;;;5.50;;
74658;SDS011;63186;51.204;6.536;2022-09-21T05:00:31;9.33;;;5.10;;
74658;SDS011;63186;51.204;6.536;2022-09-21T05:02:56;10.33;;;4.53;;
74658;SDS011;63186;51.204;6.536;2022-09-21T05:05:23;7.43;;;4.40;;
74658;SDS011;63186;51.204;6.536;2022-09-21T05:07:48;8.83;;;4.50;;
74658;SDS011;63186;51.204;6.536;2022-09-21T05:10:13;9.80;;;5.30;;
74658;SDS011;63186;51.204;6.536;2022-09-21T05:12:39;10.02;;;5.25;;
74658;SDS011;63186;51.204;6.536;2022-09-21T05:15:06;10.90;;;5.43;;
74658;SDS011;63186;51.204;6.536;2022-09-21T05:17:32;8.60;;;5.65;;
74658;SDS011;63186;51.204;6.536;2022-09-21T05:19:57;11.07;;;6.10;;
74658;SDS011;63186;51.204;6.536;2022-09-21T05:22:22;11.30;;;4.90;;
74658;SDS011;63186;51.204;6.536;2022-09-21T05:24:48;10.80;;;5.30;;
74658;SDS011;63186;51.204;6.536;2022-09-21T05:27:13;12.60;;;5.50;;
74658;SDS011;63186;51.204;6.536;2022-09-21T05:29:39;10.90;;;6.28;;
74658;SDS011;63186;51.204;6.536;2022-09-21T05:34:48;13.48;;;6.03;;
74658;SDS011;63186;51.204;6.536;2022-09-21T05:40:04;10.35;;;5.85;;
74658;SDS011;63186;51.204;6.536;2022-09-21T05:42:31;12.18;;;7.28;;
74658;SDS011;63186;51.204;6.536;2022-09-21T05:44:57;13.73;;;7.55;;
74658;SDS011;63186;51.204;6.536;2022-09-21T06:05:51;14.27;;;6.57;;
74658;SDS011;63186;51.204;6.536;2022-09-21T06:08:16;9.60;;;5.93;;
74658;SDS011;63186;51.204;6.536;2022-09-21T06:10:41;9.93;;;5.77;;
74658;SDS011;63186;51.204;6.536;2022-09-21T06:13:07;10.45;;;5.30;;
74658;SDS011;63186;51.204;6.536;2022-09-21T06:15:32;9.50;;;5.80;;
74658;SDS011;63186;51.204;6.536;2022-09-21T06:18:02;11.38;;;5.00;;
74658;SDS011;63186;51.204;6.536;2022-09-21T06:20:27;10.45;;;5.63;;
74658;SDS011;63186;51.204;6.536;2022-09-21T06:22:58;8.63;;;4.83;;
74658;SDS011;63186;51.204;6.536;2022-09-21T06:25:34;9.23;;;5.68;;
74658;SDS011;63186;51.204;6.536;2022-09-21T06:28:09;10.07;;;5.97;;
74658;SDS011;63186;51.204;6.536;2022-09-21T06:30:36;10.10;;;5.28;;
74658;SDS011;63186;51.204;6.536;2022-09-21T06:33:04;10.73;;;5.72;;
74658;SDS011;63186;51.204;6.536;2022-09-21T06:35:30;12.13;;;5.57;;
74658;SDS011;63186;51.204;6.536;2022-09-21T06:38:01;14.45;;;5.97;;
74658;SDS011;63186;51.204;6.536;2022-09-21T06:40:28;9.90;;;5.55;;
74658;SDS011;63186;51.204;6.536;2022-09-21T06:42:57;16.13;;;6.20;;
74658;SDS011;63186;51.204;6.536;2022-09-21T06:45:24;11.43;;;5.82;;
74658;SDS011;63186;51.204;6.536;2022-09-21T06:47:50;10.75;;;6.30;;
74658;SDS011;63186;51.204;6.536;2022-09-21T06:50:16;14.27;;;6.45;;
74658;SDS011;63186;51.204;6.536;2022-09-21T06:52:41;12.10;;;6.15;;
74658;SDS011;63186;51.204;6.536;2022-09-21T06:55:07;11.83;;;6.23;;
74658;SDS011;63186;51.204;6.536;2022-09-21T06:57:34;11.57;;;6.20;;
74658;SDS011;63186;51.204;6.536;2022-09-21T06:59:59;14.40;;;5.93;;
74658;SDS011;63186;51.204;6.536;2022-09-21T07:02:24;11.80;;;6.07;;
74658;SDS011;63186;51.204;6.536;2022-09-21T07:04:50;10.97;;;5.57;;
74658;SDS011;63186;51.204;6.536;2022-09-21T07:07:15;13.70;;;6.33;;
74658;SDS011;63186;51.204;6.536;2022-09-21T07:09:40;11.53;;;5.47;;
74658;SDS011;63186;51.204;6.536;2022-09-21T07:12:06;10.27;;;5.67;;
74658;SDS011;63186;51.204;6.536;2022-09-21T07:14:32;10.55;;;5.38;;
74658;SDS011;63186;51.204;6.536;2022-09-21T07:16:57;13.38;;;6.38;;
74658;SDS011;63186;51.204;6.536;2022-09-21T07:19:23;11.15;;;6.53;;
74658;SDS011;63186;51.204;6.536;2022-09-21T07:21:51;10.95;;;6.00;;
74658;SDS011;63186;51.204;6.536;2022-09-21T07:24:17;12.82;;;7.05;;
74658;SDS011;63186;51.204;6.536;2022-09-21T07:26:42;12.90;;;6.33;;
74658;SDS011;63186;51.204;6.536;2022-09-21T07:29:08;15.70;;;7.00;;
74658;SDS011;63186;51.204;6.536;2022-09-21T07:31:33;13.10;;;7.70;;
74658;SDS011;63186;51.204;6.536;2022-09-21T07:33:59;17.23;;;8.18;;
74658;SDS011;63186;51.204;6.536;2022-09-21T07:36:24;12.83;;;7.43;;
74658;SDS011;63186;51.204;6.536;2022-09-21T07:38:49;11.75;;;7.10;;
74658;SDS011;63186;51.204;6.536;2022-09-21T07:41:15;18.63;;;8.17;;
74658;SDS011;63186;51.204;6.536;2022-09-21T07:43:40;19.20;;;8.30;;
74658;SDS011;63186;51.204;6.536;2022-09-21T07:46:07;16.00;;;8.25;;
74658;SDS011;63186;51.204;6.536;2022-09-21T07:48:34;13.77;;;8.15;;
74658;SDS011;63186;51.204;6.536;2022-09-21T07:51:03;13.20;;;7.30;;
74658;SDS011;63186;51.204;6.536;2022-09-21T07:53:31;19.90;;;10.43;;
74658;SDS011;63186;51.204;6.536;2022-09-21T07:56:04;18.63;;;8.63;;
74658;SDS011;63186;51.204;6.536;2022-09-21T07:58:34;13.73;;;8.25;;
74658;SDS011;63186;51.204;6.536;2022-09-21T08:01:19;14.68;;;8.98;;
74658;SDS011;63186;51.204;6.536;2022-09-21T08:03:47;16.85;;;8.90;;
74658;SDS011;63186;51.204;6.536;2022-09-21T08:06:16;14.63;;;7.85;;
74658;SDS011;63186;51.204;6.536;2022-09-21T08:08:42;17.48;;;8.52;;
74658;SDS011;63186;51.204;6.536;2022-09-21T08:11:07;15.93;;;8.50;;
74658;SDS011;63186;51.204;6.536;2022-09-21T08:13:33;15.80;;;7.40;;
74658;SDS011;63186;51.204;6.536;2022-09-21T08:16:02;16.55;;;8.20;;
74658;SDS011;63186;51.204;6.536;2022-09-21T08:18:27;16.30;;;7.88;;
74658;SDS011;63186;51.204;6.536;2022-09-21T08:20:53;13.95;;;8.32;;
74658;SDS011;63186;51.204;6.536;2022-09-21T08:23:19;19.85;;;8.88;;
74658;SDS011;63186;51.204;6.536;2022-09-21T08:25:45;27.02;;;7.80;;
74658;SDS011;63186;51.204;6.536;2022-09-21T08:28:10;18.90;;;7.93;;
74658;SDS011;63186;51.204;6.536;2022-09-21T08:30:35;15.73;;;7.93;;
74658;SDS011;63186;51.204;6.536;2022-09-21T08:33:01;12.85;;;7.45;;
74658;SDS011;63186;51.204;6.536;2022-09-21T08:35:27;13.75;;;7.80;;
74658;SDS011;63186;51.204;6.536;2022-09-21T08:37:52;16.70;;;8.70;;
74658;SDS011;63186;51.204;6.536;2022-09-21T08:40:18;19.98;;;9.35;;
74658;SDS011;63186;51.204;6.536;2022-09-21T08:42:48;15.45;;;8.07;;
74658;SDS011;63186;51.204;6.536;2022-09-21T08:45:21;14.63;;;7.72;;
74658;SDS011;63186;51.204;6.536;2022-09-21T08:47:55;14.07;;;8.38;;
74658;SDS011;63186;51.204;6.536;2022-09-21T08:53:17;16.73;;;8.73;;
74658;SDS011;63186;51.204;6.536;2022-09-21T08:55:45;14.95;;;8.98;;
74658;SDS011;63186;51.204;6.536;2022-09-21T08:58:18;17.98;;;9.57;;
74658;SDS011;63186;51.204;6.536;2022-09-21T09:00:47;14.57;;;7.97;;
74658;SDS011;63186;51.204;6.536;2022-09-21T09:03:33;14.65;;;8.20;;
74658;SDS011;63186;51.204;6.536;2022-09-21T09:06:00;12.80;;;7.75;;
74658;SDS011;63186;51.204;6.536;2022-09-21T09:08:38;12.27;;;7.15;;
74658;SDS011;63186;51.204;6.536;2022-09-21T09:14:13;12.13;;;6.47;;
74658;SDS011;63186;51.204;6.536;2022-09-21T09:19:50;14.10;;;6.85;;
74658;SDS011;63186;51.204;6.536;2022-09-21T09:22:26;13.63;;;7.53;;
74658;SDS011;63186;51.204;6.536;2022-09-21T09:24:57;11.70;;;5.55;;
74658;SDS011;63186;51.204;6.536;2022-09-21T09:27:32;12.40;;;6.72;;
74658;SDS011;63186;51.204;6.536;2022-09-21T09:32:43;10.50;;;5.32;;
74658;SDS011;63186;51.204;6.536;2022-09-21T09:38:07;11.02;;;4.93;;
74658;SDS011;63186;51.204;6.536;2022-09-21T09:43:13;9.88;;;4.70;;
74658;SDS011;63186;51.204;6.536;2022-09-21T09:50:58;10.02;;;5.30;;
74658;SDS011;63186;51.204;6.536;2022-09-21T09:53:24;11.93;;;5.20;;
74658;SDS011;63186;51.204;6.536;2022-09-21T09:55:51;12.68;;;6.05;;
74658;SDS011;63186;51.204;6.536;2022-09-21T10:01:06;11.30;;;5.32;;
74658;SDS011;63186;51.204;6.536;2022-09-21T10:03:32;10.25;;;4.90;;
74658;SDS011;63186;51.204;6.536;2022-09-21T10:05:57;9.33;;;4.20;;
74658;SDS011;63186;51.204;6.536;2022-09-21T10:10:53;10.13;;;4.50;;
74658;SDS011;63186;51.204;6.536;2022-09-21T10:13:29;8.87;;;3.40;;
74658;SDS011;63186;51.204;6.536;2022-09-21T10:15:56;7.05;;;3.45;;
74658;SDS011;63186;51.204;6.536;2022-09-21T10:18:25;8.45;;;2.92;;
74658;SDS011;63186;51.204;6.536;2022-09-21T10:21:02;8.35;;;3.58;;
74658;SDS011;63186;51.204;6.536;2022-09-21T10:23:30;7.80;;;3.30;;
74658;SDS011;63186;51.204;6.536;2022-09-21T10:26:02;6.50;;;2.83;;
74658;SDS011;63186;51.204;6.536;2022-09-21T10:28:28;6.63;;;2.95;;
74658;SDS011;63186;51.204;6.536;2022-09-21T10:31:07;9.40;;;2.28;;
74658;SDS011;63186;51.204;6.536;2022-09-21T10:33:41;8.50;;;3.78;;
74658;SDS011;63186;51.204;6.536;2022-09-21T10:36:30;6.70;;;3.25;;
74658;SDS011;63186;51.204;6.536;2022-09-21T10:44:21;8.85;;;3.85;;
74658;SDS011;63186;51.204;6.536;2022-09-21T10:46:49;11.35;;;2.95;;
74658;SDS011;63186;51.204;6.536;2022-09-21T10:49:26;7.50;;;2.90;;
74658;SDS011;63186;51.204;6.536;2022-09-21T10:51:54;11.15;;;3.13;;
74658;SDS011;63186;51.204;6.536;2022-09-21T10:54:26;10.00;;;3.50;;
74658;SDS011;63186;51.204;6.536;2022-09-21T10:57:02;8.50;;;3.78;;
74658;SDS011;63186;51.204;6.536;2022-09-21T10:59:32;12.43;;;4.07;;
74658;SDS011;63186;51.204;6.536;2022-09-21T11:01:59;7.68;;;3.17;;
74658;SDS011;63186;51.204;6.536;2022-09-21T11:07:01;4.93;;;2.13;;
74658;SDS011;63186;51.204;6.536;2022-09-21T11:09:38;8.82;;;2.33;;
74658;SDS011;63186;51.204;6.536;2022-09-21T11:12:32;11.15;;;3.35;;
74658;SDS011;63186;51.204;6.536;2022-09-21T11:17:48;6.93;;;3.17;;
74658;SDS011;63186;51.204;6.536;2022-09-21T11:20:26;7.70;;;3.17;;
74658;SDS011;63186;51.204;6.536;2022-09-21T11:28:56;10.95;;;3.10;;
74658;SDS011;63186;51.204;6.536;2022-09-21T11:31:36;8.80;;;3.00;;
74658;SDS011;63186;51.204;6.536;2022-09-21T11:34:48;6.63;;;2.60;;
74658;SDS011;63186;51.204;6.536;2022-09-21T11:37:44;9.90;;;3.88;;
74658;SDS011;63186;51.204;6.536;2022-09-21T11:40:46;8.68;;;3.08;;
74658;SDS011;63186;51.204;6.536;2022-09-21T11:43:31;7.75;;;3.00;;
74658;SDS011;63186;51.204;6.536;2022-09-21T11:57:39;9.75;;;3.28;;
74658;SDS011;63186;51.204;6.536;2022-09-21T12:00:18;8.15;;;2.85;;
74658;SDS011;63186;51.204;6.536;2022-09-21T12:11:28;7.05;;;2.67;;
74658;SDS011;63186;51.204;6.536;2022-09-21T12:14:06;5.28;;;2.45;;
74658;SDS011;63186;51.204;6.536;2022-09-21T12:16:41;9.32;;;3.30;;
74658;SDS011;63186;51.204;6.536;2022-09-21T12:22:10;8.60;;;2.60;;
74658;SDS011;63186;51.204;6.536;2022-09-21T12:24:51;7.80;;;2.50;;
74658;SDS011;63186;51.204;6.536;2022-09-21T12:27:27;8.27;;;2.58;;
74658;SDS011;63186;51.204;6.536;2022-09-21T12:30:01;8.80;;;2.10;;
74658;SDS011;63186;51.204;6.536;2022-09-21T12:32:45;5.60;;;1.77;;
74658;SDS011;63186;51.204;6.536;2022-09-21T12:35:23;7.25;;;2.33;;
74658;SDS011;63186;51.204;6.536;2022-09-21T12:38:04;7.15;;;2.33;;
74658;SDS011;63186;51.204;6.536;2022-09-21T12:40:39;7.82;;;2.70;;
74658;SDS011;63186;51.204;6.536;2022-09-21T12:46:22;9.55;;;2.50;;
74658;SDS011;63186;51.204;6.536;2022-09-21T12:48:49;7.22;;;2.78;;
74658;SDS011;63186;51.204;6.536;2022-09-21T12:51:18;5.90;;;2.27;;
74658;SDS011;63186;51.204;6.536;2022-09-21T12:53:50;6.93;;;2.85;;
74658;SDS011;63186;51.204;6.536;2022-09-21T13:04:23;6.72;;;2.15;;
74658;SDS011;63186;51.204;6.536;2022-09-21T13:07:21;9.10;;;2.60;;
74658;SDS011;63186;51.204;6.536;2022-09-21T13:09:56;8.68;;;2.78;;
74658;SDS011;63186;51.204;6.536;2022-09-21T13:12:26;5.05;;;1.90;;
74658;SDS011;63186;51.204;6.536;2022-09-21T13:15:02;5.10;;;1.35;;
74658;SDS011;63186;51.204;6.536;2022-09-21T13:17:37;5.70;;;1.73;;
74658;SDS011;63186;51.204;6.536;2022-09-21T13:20:14;7.55;;;2.17;;
74658;SDS011;63186;51.204;6.536;2022-09-21T13:22:42;6.60;;;2.55;;
74658;SDS011;63186;51.204;6.536;2022-09-21T13:30:34;5.20;;;1.50;;
74658;SDS011;63186;51.204;6.536;2022-09-21T13:49:22;2.50;;;1.20;;
74658;SDS011;63186;51.204;6.536;2022-09-21T13:52:21;6.05;;;1.80;;
74658;SDS011;63186;51.204;6.536;2022-09-21T13:55:27;3.63;;;1.60;;
74658;SDS011;63186;51.204;6.536;2022-09-21T13:57:59;4.22;;;1.50;;
74658;SDS011;63186;51.204;6.536;2022-09-21T14:00:41;3.45;;;1.23;;
74658;SDS011;63186;51.204;6.536;2022-09-21T14:03:27;2.97;;;1.10;;
74658;SDS011;63186;51.204;6.536;2022-09-21T14:06:03;3.40;;;1.45;;
74658;SDS011;63186;51.204;6.536;2022-09-21T14:08:32;3.45;;;1.20;;
74658;SDS011;63186;51.204;6.536;2022-09-21T14:11:03;4.40;;;1.33;;
74658;SDS011;63186;51.204;6.536;2022-09-21T14:13:38;4.72;;;1.58;;
74658;SDS011;63186;51.204;6.536;2022-09-21T14:24:36;4.93;;;1.50;;
74658;SDS011;63186;51.204;6.536;2022-09-21T14:32:27;4.95;;;1.35;;
74658;SDS011;63186;51.204;6.536;2022-09-21T14:35:04;4.63;;;1.27;;
74658;SDS011;63186;51.204;6.536;2022-09-21T14:37:39;3.35;;;1.50;;
74658;SDS011;63186;51.204;6.536;2022-09-21T14:42:56;2.75;;;1.17;;
74658;SDS011;63186;51.204;6.536;2022-09-21T14:48:23;5.38;;;1.30;;
74658;SDS011;63186;51.204;6.536;2022-09-21T15:02:38;7.07;;;2.10;;
74658;SDS011;63186;51.204;6.536;2022-09-21T15:11:09;3.38;;;1.30;;
74658;SDS011;63186;51.204;6.536;2022-09-21T15:14:02;3.80;;;1.30;;
74658;SDS011;63186;51.204;6.536;2022-09-21T15:16:45;6.72;;;1.40;;
74658;SDS011;63186;51.204;6.536;2022-09-21T15:21:52;4.05;;;1.33;;
74658;SDS011;63186;51.204;6.536;2022-09-21T15:24:23;5.85;;;1.80;;
74658;SDS011;63186;51.204;6.536;2022-09-21T15:27:00;3.92;;;1.60;;
74658;SDS011;63186;51.204;6.536;2022-09-21T15:29:35;5.40;;;1.38;;
74658;SDS011;63186;51.204;6.536;2022-09-21T15:32:01;3.13;;;1.50;;
74658;SDS011;63186;51.204;6.536;2022-09-21T15:34:27;5.55;;;1.70;;
74658;SDS011;63186;51.204;6.536;2022-09-21T15:36:53;3.47;;;1.45;;
74658;SDS011;63186;51.204;6.536;2022-09-21T15:39:30;7.18;;;2.05;;
74658;SDS011;63186;51.204;6.536;2022-09-21T15:42:07;4.13;;;1.58;;
74658;SDS011;63186;51.204;6.536;2022-09-21T15:44:35;3.97;;;1.33;;
74658;SDS011;63186;51.204;6.536;2022-09-21T15:47:02;4.63;;;1.50;;
74658;SDS011;63186;51.204;6.536;2022-09-21T15:49:32;4.88;;;1.48;;
74658;SDS011;63186;51.204;6.536;2022-09-21T15:51:59;3.10;;;1.52;;
74658;SDS011;63186;51.204;6.536;2022-09-21T15:54:52;1.88;;;1.27;;
74658;SDS011;63186;51.204;6.536;2022-09-21T16:00:00;5.43;;;2.00;;
74658;SDS011;63186;51.204;6.536;2022-09-21T16:02:37;5.38;;;1.65;;
74658;SDS011;63186;51.204;6.536;2022-09-21T16:05:04;5.82;;;1.48;;
74658;SDS011;63186;51.204;6.536;2022-09-21T16:07:36;5.28;;;2.28;;
74658;SDS011;63186;51.204;6.536;2022-09-21T16:10:24;6.03;;;1.73;;
74658;SDS011;63186;51.204;6.536;2022-09-21T16:13:35;6.10;;;1.88;;
74658;SDS011;63186;51.204;6.536;2022-09-21T16:16:09;4.43;;;1.58;;
74658;SDS011;63186;51.204;6.536;2022-09-21T16:21:14;3.72;;;1.50;;
74658;SDS011;63186;51.204;6.536;2022-09-21T16:23:44;3.65;;;1.55;;
74658;SDS011;63186;51.204;6.536;2022-09-21T16:26:17;2.88;;;1.17;;
74658;SDS011;63186;51.204;6.536;2022-09-21T16:28:44;6.15;;;1.45;;
74658;SDS011;63186;51.204;6.536;2022-09-21T16:34:10;2.78;;;1.20;;
74658;SDS011;63186;51.204;6.536;2022-09-21T16:36:49;5.07;;;1.60;;
74658;SDS011;63186;51.204;6.536;2022-09-21T16:39:17;4.47;;;1.67;;
74658;SDS011;63186;51.204;6.536;2022-09-21T16:41:44;5.82;;;2.00;;
74658;SDS011;63186;51.204;6.536;2022-09-21T16:44:11;4.47;;;1.70;;
74658;SDS011;63186;51.204;6.536;2022-09-21T16:46:43;3.10;;;1.42;;
74658;SDS011;63186;51.204;6.536;2022-09-21T16:49:11;3.60;;;2.03;;
74658;SDS011;63186;51.204;6.536;2022-09-21T16:51:42;6.05;;;1.77;;
74658;SDS011;63186;51.204;6.536;2022-09-21T16:54:08;3.35;;;1.58;;
74658;SDS011;63186;51.204;6.536;2022-09-21T16:56:33;6.60;;;1.63;;
74658;SDS011;63186;51.204;6.536;2022-09-21T16:59:00;4.50;;;1.50;;
74658;SDS011;63186;51.204;6.536;2022-09-21T17:01:27;5.35;;;1.60;;
74658;SDS011;63186;51.204;6.536;2022-09-21T17:03:52;3.42;;;1.58;;
74658;SDS011;63186;51.204;6.536;2022-09-21T17:06:19;4.33;;;1.70;;
74658;SDS011;63186;51.204;6.536;2022-09-21T17:08:45;4.03;;;1.80;;
74658;SDS011;63186;51.204;6.536;2022-09-21T17:11:12;5.03;;;1.85;;
74658;SDS011;63186;51.204;6.536;2022-09-21T17:13:44;4.43;;;1.90;;
74658;SDS011;63186;51.204;6.536;2022-09-21T17:16:13;4.03;;;1.52;;
74658;SDS011;63186;51.204;6.536;2022-09-21T17:18:46;3.78;;;1.52;;
74658;SDS011;63186;51.204;6.536;2022-09-21T17:21:13;4.07;;;1.73;;
74658;SDS011;63186;51.204;6.536;2022-09-21T17:23:39;4.93;;;1.70;;
74658;SDS011;63186;51.204;6.536;2022-09-21T17:26:11;6.13;;;1.50;;
74658;SDS011;63186;51.204;6.536;2022-09-21T17:28:39;7.10;;;1.88;;
74658;SDS011;63186;51.204;6.536;2022-09-21T17:31:07;3.33;;;1.52;;
74658;SDS011;63186;51.204;6.536;2022-09-21T17:33:34;2.10;;;1.50;;
74658;SDS011;63186;51.204;6.536;2022-09-21T17:36:00;4.33;;;1.63;;
74658;SDS011;63186;51.204;6.536;2022-09-21T17:38:26;3.92;;;1.75;;
74658;SDS011;63186;51.204;6.536;2022-09-21T17:40:51;5.40;;;1.70;;
74658;SDS011;63186;51.204;6.536;2022-09-21T17:43:22;4.10;;;1.92;;
74658;SDS011;63186;51.204;6.536;2022-09-21T17:46:21;7.60;;;1.83;;
74658;SDS011;63186;51.204;6.536;2022-09-21T17:48:49;6.22;;;1.80;;
74658;SDS011;63186;51.204;6.536;2022-09-21T17:51:14;3.63;;;1.67;;
74658;SDS011;63186;51.204;6.536;2022-09-21T17:54:00;5.25;;;1.73;;
74658;SDS011;63186;51.204;6.536;2022-09-21T17:56:47;4.47;;;1.85;;
74658;SDS011;63186;51.204;6.536;2022-09-21T17:59:36;4.18;;;1.60;;
74658;SDS011;63186;51.204;6.536;2022-09-21T18:02:02;11.25;;;2.70;;
74658;SDS011;63186;51.204;6.536;2022-09-21T18:04:42;5.57;;;1.90;;
74658;SDS011;63186;51.204;6.536;2022-09-21T18:07:10;5.07;;;1.70;;
74658;SDS011;63186;51.204;6.536;2022-09-21T18:09:36;4.20;;;1.60;;
74658;SDS011;63186;51.204;6.536;2022-09-21T18:12:32;3.25;;;1.60;;
74658;SDS011;63186;51.204;6.536;2022-09-21T18:15:25;5.15;;;1.38;;
74658;SDS011;63186;51.204;6.536;2022-09-21T18:18:11;3.63;;;1.77;;